Time;durP1;ratioP1;P1;durP2;ratioP2;P2;SDS_P1;SDS_P2;PMS_P1;PMS_P2;Temp;Humidity;BMP_temperature;BMP_pressure;BME280_temperature;BME280_humidity;BME280_pressure;Samples;Min_cycle;Max_cycle;Signal;HPM_P1;HPM_P2
2022/05/04 00:00:49;;;;;;;9.10;6.38;;;14.50;99.80;;;;;;4968635;28;20475;-67
2022/05/04 00:03:16;;;;;;;10.27;5.60;;;14.60;99.70;;;;;;4969536;28;20084;-68
2022/05/04 00:05:42;;;;;;;12.45;5.82;;;14.50;99.90;;;;;;4968251;28;20030;-68
2022/05/04 00:08:08;;;;;;;12.00;6.57;;;14.50;99.80;;;;;;4968539;28;20030;-68
2022/05/04 00:10:34;;;;;;;11.25;6.38;;;14.50;99.70;;;;;;4966159;28;20140;-68
2022/05/04 00:13:01;;;;;;;9.13;6.03;;;14.40;99.90;;;;;;4963097;28;20035;-68
2022/05/04 00:15:27;;;;;;;10.77;6.30;;;14.40;99.90;;;;;;4967837;28;20065;-68
2022/05/04 00:17:53;;;;;;;12.73;6.55;;;14.40;99.80;;;;;;4969403;28;20122;-68
2022/05/04 00:20:19;;;;;;;14.18;5.97;;;14.40;99.70;;;;;;4970222;28;20164;-68
2022/05/04 00:22:45;;;;;;;9.48;5.60;;;14.30;99.70;;;;;;4966583;28;20135;-68
2022/05/04 00:25:11;;;;;;;14.27;5.75;;;14.30;99.60;;;;;;4969272;28;20038;-68
2022/05/04 00:27:38;;;;;;;13.88;5.43;;;14.30;99.60;;;;;;4966849;28;20030;-68
2022/05/04 00:30:06;;;;;;;14.65;6.80;;;14.30;99.40;;;;;;4967158;28;20028;-68
2022/05/04 00:32:32;;;;;;;10.40;5.57;;;14.30;99.50;;;;;;4970017;28;20035;-68
2022/05/04 00:34:58;;;;;;;15.10;5.70;;;14.30;99.60;;;;;;4969278;28;20053;-68
2022/05/04 00:37:24;;;;;;;11.55;5.57;;;14.30;99.60;;;;;;4969327;28;20468;-68
2022/05/04 00:39:50;;;;;;;11.20;6.40;;;14.20;99.50;;;;;;4969050;28;20046;-69
2022/05/04 00:42:19;;;;;;;12.40;5.75;;;14.20;99.70;;;;;;4970107;28;20027;-68
2022/05/04 00:44:47;;;;;;;13.18;5.47;;;14.30;99.60;;;;;;4967638;28;20042;-68
2022/05/04 00:47:13;;;;;;;12.85;5.35;;;14.30;99.50;;;;;;4966360;28;20106;-68
2022/05/04 00:49:40;;;;;;;13.65;5.63;;;14.20;99.60;;;;;;4968693;28;20414;-68
2022/05/04 00:52:07;;;;;;;10.93;5.95;;;14.10;99.70;;;;;;4974087;28;20029;-68
2022/05/04 00:54:34;;;;;;;11.45;6.20;;;14.10;99.50;;;;;;4964014;28;20385;-68
2022/05/04 00:57:01;;;;;;;9.75;5.78;;;14.20;99.70;;;;;;4969211;28;20027;-68
2022/05/04 00:59:29;;;;;;;10.27;5.82;;;14.10;99.70;;;;;;4970344;28;20042;-68
2022/05/04 01:01:56;;;;;;;13.73;6.55;;;14.10;99.60;;;;;;4970821;28;20102;-67
2022/05/04 01:04:21;;;;;;;9.43;6.07;;;14.10;99.80;;;;;;4971491;28;20031;-68
2022/05/04 01:06:47;;;;;;;16.08;6.97;;;14.00;99.70;;;;;;4967017;28;20023;-68
2022/05/04 01:09:13;;;;;;;16.83;6.70;;;14.00;99.70;;;;;;4969428;28;20479;-68
2022/05/04 01:11:39;;;;;;;13.52;6.32;;;14.00;99.80;;;;;;4966958;28;20121;-67
2022/05/04 01:14:10;;;;;;;17.00;6.22;;;14.00;99.70;;;;;;4970070;28;20540;-67
2022/05/04 01:16:38;;;;;;;10.73;5.63;;;14.00;99.70;;;;;;4969750;28;20483;-68
2022/05/04 01:19:06;;;;;;;13.88;6.30;;;14.00;99.70;;;;;;4972884;28;20070;-68
2022/05/04 01:21:32;;;;;;;15.32;5.93;;;14.00;99.60;;;;;;4970288;28;20027;-68
2022/05/04 01:23:58;;;;;;;10.35;6.20;;;14.00;99.60;;;;;;4972232;28;20110;-68
2022/05/04 01:26:24;;;;;;;12.52;6.20;;;13.90;99.70;;;;;;4967218;28;20534;-68
2022/05/04 01:28:49;;;;;;;12.15;6.30;;;13.90;99.80;;;;;;4967082;28;20098;-67
2022/05/04 01:31:15;;;;;;;14.15;6.13;;;13.80;99.70;;;;;;4966604;28;20384;-67
2022/05/04 01:33:41;;;;;;;13.23;5.97;;;13.80;99.80;;;;;;4966638;28;20546;-68
2022/05/04 01:36:07;;;;;;;12.30;6.00;;;13.70;99.70;;;;;;4966442;28;20023;-68
2022/05/04 01:38:34;;;;;;;11.23;5.70;;;13.70;99.70;;;;;;4968321;28;20047;-68
2022/05/04 01:41:00;;;;;;;14.38;6.75;;;13.80;99.70;;;;;;4969161;28;20038;-67
2022/05/04 01:43:26;;;;;;;11.75;5.97;;;13.70;99.70;;;;;;4967945;28;20035;-70
2022/05/04 01:45:52;;;;;;;11.23;6.03;;;13.70;99.60;;;;;;4970453;28;20604;-69
2022/05/04 01:48:18;;;;;;;15.07;6.50;;;13.60;99.50;;;;;;4969172;28;20023;-69
2022/05/04 01:50:44;;;;;;;14.55;6.45;;;13.70;99.50;;;;;;4966049;28;20038;-68
2022/05/04 01:53:10;;;;;;;16.50;6.20;;;13.70;99.20;;;;;;4964733;28;20034;-68
2022/05/04 01:55:36;;;;;;;12.52;5.55;;;13.60;99.40;;;;;;4964675;28;20027;-69
2022/05/04 01:58:03;;;;;;;13.25;5.72;;;13.50;99.40;;;;;;4964523;28;20444;-69
2022/05/04 02:00:28;;;;;;;16.77;6.20;;;13.50;99.40;;;;;;4969058;28;20035;-69
2022/05/04 02:02:54;;;;;;;12.10;5.57;;;13.50;99.30;;;;;;4970532;28;20023;-69
2022/05/04 02:05:22;;;;;;;9.82;5.55;;;13.50;99.30;;;;;;4969169;28;20038;-69
2022/05/04 02:07:48;;;;;;;12.30;6.18;;;13.50;99.20;;;;;;4968301;28;20026;-69
2022/05/04 02:10:14;;;;;;;10.45;6.60;;;13.50;99.20;;;;;;4966295;28;20042;-69
2022/05/04 02:12:41;;;;;;;13.73;6.55;;;13.40;99.40;;;;;;4965744;28;20027;-69
2022/05/04 02:15:08;;;;;;;12.52;6.35;;;13.40;99.30;;;;;;4963564;28;20027;-69
2022/05/04 02:17:35;;;;;;;18.08;6.40;;;13.40;99.00;;;;;;4964090;28;20042;-70
2022/05/04 02:20:01;;;;;;;10.75;5.70;;;13.30;99.70;;;;;;4967709;28;20053;-69
2022/05/04 02:22:27;;;;;;;12.55;5.93;;;13.20;99.40;;;;;;4967190;28;20015;-69
2022/05/04 02:24:53;;;;;;;11.25;5.80;;;13.20;99.50;;;;;;4964003;28;20079;-69
2022/05/04 02:27:19;;;;;;;13.70;6.20;;;13.20;99.50;;;;;;4965988;28;20356;-69
2022/05/04 02:29:44;;;;;;;15.35;6.40;;;13.10;99.40;;;;;;4968215;28;20097;-69
2022/05/04 02:32:10;;;;;;;16.67;6.13;;;13.20;99.70;;;;;;4970205;28;20039;-70
2022/05/04 02:40:05;;;;;;;11.05;6.03;;;13.00;99.20;;;;;;4967154;28;20037;-69
2022/05/04 02:42:31;;;;;;;14.05;6.10;;;13.00;99.20;;;;;;4967525;28;20054;-70
2022/05/04 02:44:58;;;;;;;12.27;6.57;;;13.10;99.10;;;;;;4963931;28;20070;-69
2022/05/04 02:47:24;;;;;;;14.20;6.72;;;13.00;99.10;;;;;;4968225;28;20026;-69
2022/05/04 02:49:49;;;;;;;14.18;7.05;;;13.00;99.20;;;;;;4967025;28;20406;-69
2022/05/04 02:52:15;;;;;;;16.23;6.55;;;13.00;99.20;;;;;;4969196;28;20027;-69
2022/05/04 02:54:41;;;;;;;12.25;6.30;;;13.00;99.30;;;;;;4965857;28;20388;-68
2022/05/04 02:57:07;;;;;;;15.52;5.88;;;12.90;99.70;;;;;;4969660;28;20035;-68
2022/05/04 02:59:33;;;;;;;10.10;6.18;;;12.90;99.80;;;;;;4962915;28;20050;-68
2022/05/04 03:04:42;;;;;;;15.65;6.28;;;12.80;99.80;;;;;;4967069;28;20050;-68
2022/05/04 03:07:08;;;;;;;10.50;5.95;;;12.80;99.90;;;;;;4969818;28;20464;-68
2022/05/04 03:09:33;;;;;;;16.63;6.45;;;12.80;99.90;;;;;;4966016;28;20027;-68
2022/05/04 03:11:59;;;;;;;17.88;6.65;;;12.80;99.90;;;;;;4965436;28;20039;-68
2022/05/04 03:14:27;;;;;;;15.05;7.53;;;12.80;99.90;;;;;;4968991;28;20038;-68
2022/05/04 03:16:54;;;;;;;13.40;6.40;;;12.80;99.90;;;;;;4978316;28;20021;-69
2022/05/04 03:19:24;;;;;;;10.40;6.00;;;12.80;99.90;;;;;;4978852;28;20038;-69
2022/05/04 03:21:50;;;;;;;14.02;5.80;;;12.80;99.90;;;;;;4969153;28;20479;-68
2022/05/04 03:24:16;;;;;;;10.27;6.15;;;12.80;99.90;;;;;;4962374;28;20035;-69
2022/05/04 03:26:41;;;;;;;14.15;6.40;;;12.80;99.90;;;;;;4966579;28;20019;-69
2022/05/04 03:29:08;;;;;;;15.60;7.13;;;12.70;99.90;;;;;;4965214;28;20101;-69
2022/05/04 03:31:33;;;;;;;16.58;5.93;;;12.80;99.90;;;;;;4958001;28;20015;-69
2022/05/04 03:33:59;;;;;;;18.42;6.80;;;12.80;99.90;;;;;;4966628;28;20034;-69
2022/05/04 03:36:25;;;;;;;14.43;6.32;;;12.90;99.90;;;;;;4967695;28;20020;-69
2022/05/04 03:38:51;;;;;;;9.65;6.20;;;12.90;99.70;;;;;;4966103;28;20499;-69
2022/05/04 03:41:17;;;;;;;12.23;6.40;;;12.90;99.60;;;;;;4966094;28;20110;-68
2022/05/04 03:43:43;;;;;;;13.48;6.60;;;12.80;99.90;;;;;;4965955;28;20028;-69
2022/05/04 03:46:15;;;;;;;18.40;6.25;;;12.80;99.90;;;;;;4973923;28;20054;-69
2022/05/04 03:48:43;;;;;;;11.13;7.07;;;12.80;99.90;;;;;;4965154;28;20027;-69
2022/05/04 03:51:09;;;;;;;12.85;6.47;;;12.80;99.90;;;;;;4966814;28;20023;-69
2022/05/04 03:53:36;;;;;;;18.10;6.57;;;12.80;99.90;;;;;;4967997;28;20027;-69
2022/05/04 03:56:02;;;;;;;15.85;6.70;;;12.80;99.90;;;;;;4969114;28;20030;-69
2022/05/04 03:58:28;;;;;;;11.38;7.10;;;12.80;99.90;;;;;;4964339;28;20043;-69
2022/05/04 04:00:54;;;;;;;18.80;6.70;;;12.90;99.90;;;;;;4968469;28;20019;-69
2022/05/04 04:03:19;;;;;;;14.75;6.70;;;12.90;99.90;;;;;;4965758;28;20096;-69
2022/05/04 04:05:45;;;;;;;12.60;7.00;;;12.90;99.90;;;;;;4965024;28;20480;-69
2022/05/04 04:08:10;;;;;;;13.68;6.72;;;12.80;99.90;;;;;;4965790;28;20033;-69
2022/05/04 04:10:36;;;;;;;10.82;5.97;;;12.60;99.90;;;;;;4967915;28;20027;-69
2022/05/04 04:13:02;;;;;;;11.95;6.00;;;12.70;99.90;;;;;;4963264;28;20085;-69
2022/05/04 04:15:28;;;;;;;13.32;6.50;;;12.70;99.90;;;;;;4963814;28;20099;-69
2022/05/04 04:17:54;;;;;;;14.18;6.13;;;12.70;99.90;;;;;;4962960;28;20110;-69
2022/05/04 04:23:04;;;;;;;13.98;6.55;;;12.80;99.90;;;;;;4965359;28;20391;-69
2022/05/04 04:25:30;;;;;;;16.33;6.22;;;12.70;99.90;;;;;;4966282;28;20039;-69
2022/05/04 04:27:57;;;;;;;13.48;6.93;;;12.70;99.90;;;;;;4968754;28;20047;-69
2022/05/04 04:30:23;;;;;;;19.02;6.57;;;12.70;99.90;;;;;;4967223;28;20106;-69
2022/05/04 04:32:49;;;;;;;20.27;6.40;;;12.60;99.90;;;;;;4965788;28;20122;-69
2022/05/04 04:35:14;;;;;;;14.27;5.97;;;12.60;99.90;;;;;;4964392;28;20023;-69
2022/05/04 04:37:40;;;;;;;11.35;6.38;;;12.60;99.90;;;;;;4963104;28;20529;-69
2022/05/04 04:40:06;;;;;;;15.90;6.55;;;12.60;99.90;;;;;;4964411;28;20539;-69
2022/05/04 04:42:32;;;;;;;14.73;6.10;;;12.60;99.90;;;;;;4966903;28;20367;-69
2022/05/04 04:44:58;;;;;;;17.25;6.72;;;12.60;99.90;;;;;;4964275;28;20032;-69
2022/05/04 04:47:25;;;;;;;12.77;6.72;;;12.60;99.90;;;;;;4968668;28;20033;-69
2022/05/04 04:49:55;;;;;;;14.63;6.63;;;12.70;99.90;;;;;;4964483;28;20024;-69
2022/05/04 04:52:21;;;;;;;14.55;6.65;;;12.70;99.90;;;;;;4967397;28;20035;-69
2022/05/04 04:54:46;;;;;;;17.58;7.50;;;12.70;99.90;;;;;;4964957;28;20030;-69
2022/05/04 04:57:12;;;;;;;18.50;6.72;;;12.70;99.90;;;;;;4967217;28;20390;-68
2022/05/04 04:59:38;;;;;;;14.02;6.60;;;12.70;99.90;;;;;;4967952;28;20068;-69
2022/05/04 05:02:04;;;;;;;16.20;6.75;;;12.70;99.90;;;;;;4967032;28;20455;-69
2022/05/04 05:04:29;;;;;;;16.10;6.93;;;12.60;99.90;;;;;;4961889;28;20043;-69
2022/05/04 05:06:55;;;;;;;15.77;7.28;;;12.60;99.90;;;;;;4962813;28;20073;-69
2022/05/04 05:09:21;;;;;;;15.77;7.10;;;12.60;99.90;;;;;;4967760;28;20031;-69
2022/05/04 05:11:46;;;;;;;15.13;7.25;;;12.60;99.90;;;;;;4964792;28;20051;-69
2022/05/04 05:16:56;;;;;;;15.95;6.65;;;12.60;99.90;;;;;;4965920;28;20033;-69
2022/05/04 05:19:22;;;;;;;14.38;6.55;;;12.70;99.90;;;;;;4970250;28;20046;-69
2022/05/04 05:21:47;;;;;;;18.67;6.18;;;12.80;99.90;;;;;;4969356;28;20062;-69
2022/05/04 05:24:13;;;;;;;13.57;5.80;;;12.80;99.90;;;;;;4968709;28;20050;-69
2022/05/04 05:26:39;;;;;;;20.23;6.28;;;12.80;99.90;;;;;;4968638;28;20034;-69
2022/05/04 05:29:04;;;;;;;24.08;7.75;;;12.80;99.90;;;;;;4966653;28;20034;-68
2022/05/04 05:31:30;;;;;;;12.60;6.05;;;12.80;99.90;;;;;;4966748;28;20045;-69
2022/05/04 05:33:56;;;;;;;13.45;6.43;;;12.80;99.90;;;;;;4963274;28;20066;-68
2022/05/04 05:36:21;;;;;;;16.45;7.45;;;12.80;99.90;;;;;;4965757;28;20035;-69
2022/05/04 05:38:47;;;;;;;14.82;6.68;;;12.90;99.90;;;;;;4962648;28;20460;-70
2022/05/04 05:41:12;;;;;;;11.30;6.78;;;12.90;99.90;;;;;;4968795;28;20029;-69
2022/05/04 05:43:38;;;;;;;15.80;6.82;;;12.80;99.90;;;;;;4966921;28;20382;-68
2022/05/04 05:46:03;;;;;;;16.23;6.68;;;12.80;99.90;;;;;;4963021;28;20031;-68
2022/05/04 05:48:29;;;;;;;21.05;7.75;;;12.70;99.90;;;;;;4965940;28;20034;-69
2022/05/04 05:50:55;;;;;;;16.67;6.50;;;12.80;99.90;;;;;;4961989;28;20106;-69
2022/05/04 05:53:22;;;;;;;18.23;7.85;;;12.80;99.90;;;;;;4966397;28;20034;-69
2022/05/04 05:55:49;;;;;;;17.02;7.53;;;12.90;99.90;;;;;;4964286;28;20030;-69
2022/05/04 05:58:14;;;;;;;17.05;6.63;;;12.90;99.90;;;;;;4969720;28;20054;-69
2022/05/04 06:00:40;;;;;;;17.90;7.38;;;12.90;99.90;;;;;;4966813;28;20163;-70
2022/05/04 06:03:06;;;;;;;17.88;8.32;;;12.90;99.90;;;;;;4969250;28;20121;-68
2022/05/04 06:05:32;;;;;;;19.45;7.28;;;12.90;99.90;;;;;;4967045;28;20109;-68
2022/05/04 06:07:57;;;;;;;13.40;7.25;;;13.00;99.90;;;;;;4963619;28;20022;-68
2022/05/04 06:10:23;;;;;;;17.65;8.05;;;13.00;99.90;;;;;;4959137;28;20106;-68
2022/05/04 06:12:49;;;;;;;14.75;7.53;;;13.10;99.90;;;;;;4964773;28;20049;-68
2022/05/04 06:15:17;;;;;;;15.35;8.77;;;13.10;99.90;;;;;;4964061;28;20499;-68
2022/05/04 06:17:45;;;;;;;15.15;7.63;;;13.20;99.90;;;;;;4963976;28;20493;-68
2022/05/04 06:20:11;;;;;;;18.20;7.45;;;13.20;99.90;;;;;;4965532;28;20039;-68
2022/05/04 06:22:37;;;;;;;17.23;7.93;;;13.00;99.90;;;;;;4963793;28;20042;-68
2022/05/04 06:25:03;;;;;;;18.35;8.05;;;12.80;99.90;;;;;;4966534;28;20026;-68
2022/05/04 06:27:32;;;;;;;19.38;8.02;;;13.00;99.90;;;;;;4963776;28;20023;-68
2022/05/04 06:35:27;;;;;;;17.20;7.70;;;13.10;99.90;;;;;;4969811;28;20096;-68
2022/05/04 06:37:53;;;;;;;16.70;7.97;;;13.20;99.90;;;;;;4966390;28;20031;-68
2022/05/04 06:40:20;;;;;;;14.27;7.28;;;13.20;99.90;;;;;;4967109;28;20036;-67
2022/05/04 06:42:46;;;;;;;22.45;8.13;;;13.20;99.90;;;;;;4968271;28;20034;-68
2022/05/04 06:45:12;;;;;;;16.30;7.97;;;13.20;99.90;;;;;;4965860;28;20034;-69
2022/05/04 06:47:38;;;;;;;19.00;8.18;;;13.20;99.90;;;;;;4966398;28;20361;-68
2022/05/04 06:50:04;;;;;;;18.85;7.60;;;13.20;99.90;;;;;;4966076;28;20034;-68
2022/05/04 06:52:34;;;;;;;15.23;7.60;;;13.30;99.90;;;;;;4963434;28;20035;-68
2022/05/04 06:54:59;;;;;;;16.25;6.75;;;13.20;99.90;;;;;;4971221;28;20027;-69
2022/05/04 06:57:26;;;;;;;17.40;8.20;;;13.30;99.90;;;;;;4964289;28;20475;-69
2022/05/04 06:59:51;;;;;;;19.90;7.88;;;13.20;99.90;;;;;;4968726;28;20402;-68
2022/05/04 07:02:17;;;;;;;18.45;7.78;;;13.20;99.90;;;;;;4956349;28;20034;-69
2022/05/04 07:04:43;;;;;;;13.65;7.40;;;13.30;99.90;;;;;;4948790;28;20023;-69
2022/05/04 07:07:08;;;;;;;18.85;7.72;;;13.30;99.70;;;;;;4964403;28;20030;-68
2022/05/04 07:09:34;;;;;;;17.30;7.30;;;13.50;99.70;;;;;;4965985;28;20475;-68
2022/05/04 07:12:00;;;;;;;16.85;7.03;;;13.60;99.40;;;;;;4961947;28;20037;-68
2022/05/04 07:14:25;;;;;;;15.70;7.93;;;13.70;99.30;;;;;;4964252;28;20139;-68
2022/05/04 07:16:51;;;;;;;17.17;6.85;;;13.80;98.70;;;;;;4961516;28;20038;-67
2022/05/04 07:19:17;;;;;;;17.60;7.03;;;13.80;98.70;;;;;;4962021;28;20042;-67
2022/05/04 07:21:45;;;;;;;17.40;7.40;;;14.00;98.60;;;;;;4961909;28;20194;-67
2022/05/04 07:24:11;;;;;;;17.65;6.85;;;14.10;98.30;;;;;;4962169;28;20396;-67
2022/05/04 07:26:38;;;;;;;20.27;6.60;;;14.20;98.00;;;;;;4965537;28;20026;-68
2022/05/04 07:29:03;;;;;;;13.20;7.05;;;14.30;98.00;;;;;;4964798;28;20023;-67
2022/05/04 07:31:29;;;;;;;23.00;7.78;;;14.40;97.90;;;;;;4965865;28;20026;-68
2022/05/04 07:33:55;;;;;;;10.43;7.20;;;14.40;97.90;;;;;;4965228;28;20654;-68
2022/05/04 07:36:21;;;;;;;16.77;6.95;;;14.30;97.50;;;;;;4966451;28;20406;-68
2022/05/04 07:38:46;;;;;;;19.02;8.05;;;14.40;98.30;;;;;;4966352;28;20498;-70
2022/05/04 07:43:56;;;;;;;15.68;7.03;;;14.50;98.20;;;;;;4966275;28;20050;-69
2022/05/04 07:46:22;;;;;;;20.88;6.63;;;14.60;97.90;;;;;;4964323;28;20019;-69
2022/05/04 07:48:48;;;;;;;16.98;6.85;;;14.70;97.90;;;;;;4965868;28;20035;-69
2022/05/04 07:51:13;;;;;;;19.77;6.45;;;14.60;97.50;;;;;;4964220;28;20030;-67
2022/05/04 07:53:39;;;;;;;21.30;7.30;;;14.70;97.50;;;;;;4963293;28;20031;-67
2022/05/04 07:56:05;;;;;;;17.95;7.45;;;14.90;97.70;;;;;;4966677;28;20023;-69
2022/05/04 07:58:30;;;;;;;15.98;6.70;;;15.10;97.50;;;;;;4963133;28;20438;-67
2022/05/04 08:06:24;;;;;;;17.17;6.88;;;15.40;96.40;;;;;;4962325;28;20038;-67
2022/05/04 08:08:50;;;;;;;13.50;6.18;;;15.30;97.00;;;;;;4966466;28;21322;-67
2022/05/04 08:11:16;;;;;;;14.88;6.07;;;15.40;96.20;;;;;;4965609;28;20035;-68
2022/05/04 08:13:42;;;;;;;15.45;6.25;;;15.50;96.50;;;;;;4965228;28;20038;-68
2022/05/04 08:16:10;;;;;;;13.75;6.75;;;15.60;96.90;;;;;;4967887;28;20019;-68
2022/05/04 08:18:39;;;;;;;19.35;6.22;;;15.80;96.80;;;;;;4967881;28;20655;-68
2022/05/04 08:21:04;;;;;;;18.67;7.30;;;15.80;96.50;;;;;;4978179;28;20114;-69
2022/05/04 08:23:31;;;;;;;13.65;7.22;;;16.00;96.50;;;;;;4968373;28;20287;-68
2022/05/04 08:25:56;;;;;;;16.45;7.35;;;16.10;96.30;;;;;;4966146;28;20027;-67
2022/05/04 08:28:22;;;;;;;20.70;7.68;;;16.30;95.80;;;;;;4968163;28;20035;-68
2022/05/04 08:30:48;;;;;;;18.48;7.45;;;16.50;95.80;;;;;;4970403;28;20027;-68
2022/05/04 08:33:13;;;;;;;15.38;8.13;;;16.60;95.50;;;;;;4969550;28;20045;-67
2022/05/04 08:35:39;;;;;;;14.52;7.55;;;16.80;95.20;;;;;;4969934;28;20030;-68
2022/05/04 08:38:05;;;;;;;17.13;8.88;;;16.80;94.80;;;;;;4970565;28;20023;-67
2022/05/04 08:40:31;;;;;;;16.27;9.00;;;17.00;95.10;;;;;;4968023;28;20720;-67
2022/05/04 08:43:00;;;;;;;17.05;8.50;;;17.10;94.60;;;;;;4967383;28;20023;-67
2022/05/04 08:45:26;;;;;;;21.95;9.70;;;17.20;94.60;;;;;;4998533;28;20084;-67
2022/05/04 08:47:52;;;;;;;17.98;9.35;;;17.30;94.40;;;;;;4969423;28;20023;-68
2022/05/04 08:50:18;;;;;;;19.02;8.73;;;17.40;93.60;;;;;;4968290;28;20063;-68
2022/05/04 08:52:54;;;;;;;17.08;8.38;;;17.50;93.70;;;;;;4967138;28;20068;-67
2022/05/04 08:55:21;;;;;;;19.80;9.07;;;17.60;93.90;;;;;;4970459;28;20031;-68
2022/05/04 08:57:46;;;;;;;15.90;8.10;;;17.70;92.80;;;;;;4969399;28;20098;-67
2022/05/04 09:00:13;;;;;;;19.20;8.15;;;17.80;93.10;;;;;;4968984;28;20155;-68
2022/05/04 09:02:39;;;;;;;14.40;8.30;;;17.50;93.30;;;;;;4969236;28;20077;-67
2022/05/04 09:05:16;;;;;;;15.05;7.63;;;17.50;93.30;;;;;;4971895;28;20511;-68
2022/05/04 09:07:42;;;;;;;14.45;7.38;;;17.70;93.30;;;;;;4967325;28;20030;-68
2022/05/04 09:10:21;;;;;;;14.75;7.78;;;17.80;93.60;;;;;;4971030;28;20120;-68
2022/05/04 09:12:49;;;;;;;13.10;7.78;;;18.10;92.30;;;;;;4966118;28;20042;-68
2022/05/04 09:15:28;;;;;;;15.55;7.43;;;18.10;92.00;;;;;;4967793;28;20026;-68
2022/05/04 09:18:04;;;;;;;13.32;7.25;;;18.30;91.80;;;;;;4967577;28;20034;-68
2022/05/04 09:20:58;;;;;;;15.00;7.75;;;18.40;92.00;;;;;;4958412;28;20162;-67
2022/05/04 09:23:30;;;;;;;17.50;8.43;;;18.30;91.90;;;;;;4966931;28;20019;-67
2022/05/04 09:25:59;;;;;;;21.05;9.90;;;18.40;92.40;;;;;;4965740;28;20132;-68
2022/05/04 09:28:26;;;;;;;17.13;8.93;;;18.50;91.80;;;;;;4966923;28;20026;-68
2022/05/04 09:30:55;;;;;;;15.77;8.15;;;18.80;91.60;;;;;;4962074;28;20034;-68
2022/05/04 09:33:27;;;;;;;17.48;8.57;;;19.00;90.80;;;;;;4965600;28;20514;-67
2022/05/04 09:35:54;;;;;;;14.23;8.23;;;19.10;91.50;;;;;;4971785;28;20022;-67
2022/05/04 09:46:39;;;;;;;15.65;8.73;;;19.20;90.00;;;;;;4964957;28;20045;-67
2022/05/04 09:49:32;;;;;;;15.75;9.05;;;19.30;89.30;;;;;;4965872;28;20031;-67
2022/05/04 09:52:01;;;;;;;;;;;19.50;90.30;;;;;;4968444;28;20039;-67
2022/05/04 09:54:27;;;;;;;18.08;9.43;;;19.70;90.30;;;;;;4966671;28;19963;-68
2022/05/04 09:56:58;;;;;;;18.02;9.45;;;19.80;90.10;;;;;;4963866;28;20030;-67
2022/05/04 09:59:29;;;;;;;14.00;9.93;;;19.80;90.40;;;;;;4965317;28;20049;-67
2022/05/04 10:01:56;;;;;;;14.32;9.27;;;19.90;90.40;;;;;;4968594;28;20026;-67
2022/05/04 10:04:25;;;;;;;16.55;8.27;;;19.90;89.10;;;;;;4966938;28;20110;-67
2022/05/04 10:06:52;;;;;;;13.52;8.80;;;19.80;90.20;;;;;;4965272;28;20057;-67
2022/05/04 10:09:19;;;;;;;12.10;8.80;;;19.70;88.20;;;;;;4969239;28;20391;-67
2022/05/04 10:11:46;;;;;;;17.90;9.35;;;19.80;86.60;;;;;;4968813;28;20027;-67
2022/05/04 10:14:15;;;;;;;15.57;9.70;;;19.90;88.80;;;;;;4967922;28;20130;-67
2022/05/04 10:16:46;;;;;;;14.70;9.32;;;20.00;87.70;;;;;;4963851;28;20031;-67
2022/05/04 10:19:20;;;;;;;16.35;8.85;;;20.20;85.60;;;;;;4962554;28;20073;-67
2022/05/04 10:21:50;;;;;;;20.67;9.60;;;20.10;85.30;;;;;;4968499;28;20023;-67
2022/05/04 10:24:19;;;;;;;14.73;9.52;;;20.30;86.90;;;;;;4963900;28;20058;-67
2022/05/04 10:26:45;;;;;;;18.20;9.90;;;20.40;86.50;;;;;;4962131;28;20031;-67
2022/05/04 10:32:28;;;;;;;15.07;9.80;;;20.50;85.40;;;;;;4969341;28;20427;-67
2022/05/04 10:35:17;;;;;;;13.32;9.65;;;20.60;86.30;;;;;;4967745;28;20041;-67
2022/05/04 10:38:07;;;;;;;17.05;10.38;;;20.80;86.50;;;;;;4968582;28;20027;-67
2022/05/04 10:40:45;;;;;;;15.10;10.35;;;20.80;85.20;;;;;;4964592;28;20493;-67
2022/05/04 10:43:16;;;;;;;16.75;10.70;;;20.90;83.90;;;;;;4966141;28;20126;-68
2022/05/04 10:45:47;;;;;;;17.60;10.07;;;21.10;84.60;;;;;;4966011;28;20023;-67
2022/05/04 10:48:14;;;;;;;14.70;9.30;;;21.00;83.60;;;;;;4963502;28;20076;-67
2022/05/04 10:51:01;;;;;;;14.98;9.55;;;21.10;82.40;;;;;;4960651;28;20178;-67
2022/05/04 10:53:27;;;;;;;19.33;10.20;;;21.00;85.50;;;;;;4962238;28;20027;-67
2022/05/04 10:56:12;;;;;;;17.73;9.93;;;21.00;82.30;;;;;;4963959;28;20054;-67
2022/05/04 10:58:49;;;;;;;14.07;9.55;;;21.00;82.90;;;;;;4963369;28;20057;-67
2022/05/04 11:01:20;;;;;;;15.98;9.45;;;21.10;83.30;;;;;;4967573;28;20034;-67
2022/05/04 11:04:13;;;;;;;15.40;10.30;;;21.20;83.20;;;;;;4966159;28;20022;-68
2022/05/04 11:06:45;;;;;;;12.52;10.30;;;21.20;82.00;;;;;;4965445;28;20026;-67
2022/05/04 11:09:13;;;;;;;20.73;10.95;;;21.20;82.30;;;;;;4967136;28;20018;-67
2022/05/04 11:11:50;;;;;;;12.82;9.60;;;21.50;81.90;;;;;;4967020;28;20026;-67
2022/05/04 11:14:17;;;;;;;11.23;8.73;;;21.20;82.50;;;;;;4963241;28;20050;-68
2022/05/04 11:16:44;;;;;;;15.60;9.05;;;21.30;83.20;;;;;;4965661;28;20102;-67
2022/05/04 11:19:14;;;;;;;16.52;8.82;;;21.40;82.30;;;;;;4968287;28;20038;-68
2022/05/04 11:21:40;;;;;;;20.55;9.38;;;21.50;79.80;;;;;;4966372;28;20526;-67
2022/05/04 11:24:09;;;;;;;12.93;8.98;;;21.60;80.50;;;;;;4962742;28;20031;-67
2022/05/04 11:26:44;;;;;;;21.67;9.40;;;21.70;80.00;;;;;;4962071;28;20027;-67
2022/05/04 11:29:18;;;;;;;14.73;9.60;;;21.80;80.30;;;;;;4968674;28;20076;-67
2022/05/04 11:31:58;;;;;;;18.48;9.32;;;21.70;79.20;;;;;;4964598;28;20066;-67
2022/05/04 11:34:37;;;;;;;16.80;9.35;;;21.80;78.70;;;;;;4961932;28;20492;-67
2022/05/04 11:37:05;;;;;;;19.65;10.05;;;22.00;80.40;;;;;;4963942;28;20065;-68
2022/05/04 11:39:33;;;;;;;16.35;10.07;;;21.90;77.90;;;;;;4965265;28;20035;-67
2022/05/04 11:41:59;;;;;;;13.40;8.07;;;21.90;78.80;;;;;;4962496;28;20026;-67
2022/05/04 11:44:27;;;;;;;14.55;8.70;;;22.00;81.80;;;;;;4961019;28;20035;-67
2022/05/04 11:46:54;;;;;;;13.10;8.88;;;22.00;79.70;;;;;;4965028;28;20023;-67
2022/05/04 11:49:22;;;;;;;16.13;8.70;;;22.10;79.30;;;;;;4963427;28;20023;-68
2022/05/04 11:51:49;;;;;;;15.13;9.10;;;22.10;78.30;;;;;;4963649;28;20023;-67
2022/05/04 11:54:15;;;;;;;12.18;8.05;;;22.00;77.60;;;;;;4963736;28;20439;-67
2022/05/04 11:56:41;;;;;;;14.85;8.65;;;22.10;78.30;;;;;;4966958;28;20094;-67
2022/05/04 11:59:07;;;;;;;12.05;9.20;;;21.90;76.20;;;;;;4970447;28;20126;-67
2022/05/04 12:01:33;;;;;;;14.70;8.60;;;22.00;75.90;;;;;;4968980;28;20098;-67
2022/05/04 12:03:59;;;;;;;12.73;7.82;;;22.20;77.10;;;;;;4967462;28;20031;-68
2022/05/04 12:06:26;;;;;;;16.30;8.20;;;22.30;77.30;;;;;;4962637;28;20019;-67
2022/05/04 12:08:54;;;;;;;14.38;8.40;;;22.40;75.30;;;;;;4969512;28;20037;-67
2022/05/04 12:11:22;;;;;;;13.40;8.30;;;22.50;75.30;;;;;;4966319;28;20060;-67
2022/05/04 12:13:48;;;;;;;11.23;8.02;;;22.50;72.80;;;;;;4967107;28;20034;-67
2022/05/04 12:16:15;;;;;;;13.15;7.43;;;22.50;75.90;;;;;;4971611;28;20035;-68
2022/05/04 12:18:42;;;;;;;14.50;8.82;;;22.60;77.90;;;;;;4969245;28;20394;-67
2022/05/04 12:21:12;;;;;;;13.95;8.23;;;22.70;74.50;;;;;;4969360;28;20015;-67
2022/05/04 12:23:43;;;;;;;14.80;7.63;;;22.70;73.40;;;;;;4967437;28;20034;-68
2022/05/04 12:26:10;;;;;;;14.93;8.32;;;22.60;73.60;;;;;;4969681;28;20018;-68
2022/05/04 12:28:38;;;;;;;12.10;7.88;;;22.60;74.40;;;;;;4969443;28;20858;-67
2022/05/04 12:33:49;;;;;;;12.30;7.72;;;22.20;74.10;;;;;;4968859;28;20041;-67
2022/05/04 12:36:18;;;;;;;13.25;7.97;;;22.20;72.30;;;;;;4968114;28;20069;-67
2022/05/04 12:38:48;;;;;;;12.50;7.47;;;22.30;73.70;;;;;;4967805;28;20562;-68
2022/05/04 12:41:20;;;;;;;12.23;7.38;;;22.70;74.10;;;;;;4966176;28;20472;-68
2022/05/04 12:43:47;;;;;;;11.02;7.03;;;22.70;74.50;;;;;;4967345;28;20031;-67
2022/05/04 12:46:15;;;;;;;14.85;8.13;;;22.80;73.90;;;;;;4969118;28;20383;-67
2022/05/04 12:48:43;;;;;;;15.23;7.82;;;22.80;73.70;;;;;;4968273;28;20071;-67
2022/05/04 12:51:10;;;;;;;9.60;7.10;;;22.80;72.20;;;;;;4964824;28;20047;-67
2022/05/04 12:53:39;;;;;;;9.65;6.93;;;22.80;71.70;;;;;;4971632;28;20065;-67
2022/05/04 12:58:53;;;;;;;9.82;6.53;;;22.70;70.70;;;;;;4967235;28;20557;-68
2022/05/04 13:01:27;;;;;;;8.93;6.95;;;22.90;70.60;;;;;;4969624;28;20092;-67
2022/05/04 13:03:52;;;;;;;9.65;7.20;;;22.90;72.50;;;;;;4965970;28;20471;-68
2022/05/04 13:06:19;;;;;;;12.70;7.40;;;23.00;70.30;;;;;;4969449;28;20034;-67
2022/05/04 13:08:47;;;;;;;14.27;8.38;;;23.10;73.90;;;;;;4968808;28;20019;-68
2022/05/04 13:11:13;;;;;;;15.18;8.00;;;22.90;69.90;;;;;;4970832;28;20471;-67
2022/05/04 13:13:39;;;;;;;13.00;7.78;;;22.60;72.80;;;;;;4967078;28;20053;-67
2022/05/04 13:16:04;;;;;;;16.60;8.07;;;22.80;73.70;;;;;;4968676;28;20467;-68
2022/05/04 13:18:30;;;;;;;14.43;7.72;;;23.10;73.70;;;;;;4966637;28;20032;-67
2022/05/04 13:20:56;;;;;;;15.70;7.10;;;23.00;70.60;;;;;;4966406;28;20030;-67
2022/05/04 13:23:21;;;;;;;12.90;6.45;;;23.10;73.10;;;;;;4967755;28;20345;-68